Time;durP1;ratioP1;P1;durP2;ratioP2;P2;SDS_P1;SDS_P2;PMS_P1;PMS_P2;Temp;Humidity;BMP_temperature;BMP_pressure;BME280_temperature;BME280_humidity;BME280_pressure;Samples;Min_cycle;Max_cycle;Signal;HPM_P1;HPM_P2
2022/05/12 00:01:03;;;;;;;6.23;3.83;;;17.20;99.90;;;;;;4949423;28;20190;-73
2022/05/12 00:03:29;;;;;;;5.27;3.03;;;17.20;99.90;;;;;;4951181;28;20218;-73
2022/05/12 00:05:56;;;;;;;5.20;3.30;;;17.10;99.90;;;;;;4952611;28;20198;-72
2022/05/12 00:08:23;;;;;;;6.47;3.43;;;17.10;99.90;;;;;;4950097;28;20221;-74
2022/05/12 00:10:49;;;;;;;5.53;3.73;;;17.10;99.90;;;;;;4950368;28;20245;-72
2022/05/12 00:13:16;;;;;;;6.20;3.50;;;17.00;99.90;;;;;;4949601;28;20198;-72
2022/05/12 00:15:43;;;;;;;4.40;3.30;;;16.90;99.90;;;;;;4950555;28;20252;-72
2022/05/12 00:18:10;;;;;;;6.93;3.47;;;16.90;99.90;;;;;;4949514;28;20268;-73
2022/05/12 00:20:41;;;;;;;8.03;3.50;;;17.00;99.90;;;;;;4951544;28;20202;-72
2022/05/12 00:23:07;;;;;;;4.33;2.93;;;17.00;99.90;;;;;;4949049;28;20265;-74
2022/05/12 00:25:34;;;;;;;7.83;2.93;;;16.90;99.90;;;;;;4946911;28;20194;-74
2022/05/12 00:28:01;;;;;;;8.23;3.60;;;17.00;99.90;;;;;;4946820;28;20222;-73
2022/05/12 00:30:28;;;;;;;6.37;3.20;;;17.00;99.90;;;;;;4951237;28;20198;-73
2022/05/12 00:32:54;;;;;;;6.23;3.40;;;17.00;99.90;;;;;;4959330;28;20199;-72
2022/05/12 00:35:21;;;;;;;5.77;3.30;;;17.00;99.90;;;;;;4952620;28;20210;-73
2022/05/12 00:37:48;;;;;;;5.57;3.00;;;17.00;99.90;;;;;;4955217;28;20635;-73
2022/05/12 00:40:16;;;;;;;6.73;3.53;;;17.00;99.90;;;;;;4954427;28;20206;-72
2022/05/12 00:43:06;;;;;;;4.23;3.20;;;17.00;99.90;;;;;;4949445;28;20782;-73
2022/05/12 00:45:35;;;;;;;5.23;3.03;;;17.00;99.90;;;;;;4955336;28;20447;-73
2022/05/12 00:48:04;;;;;;;6.53;3.43;;;16.90;99.90;;;;;;4953903;28;20218;-73
2022/05/12 00:50:38;;;;;;;4.07;2.73;;;16.90;99.90;;;;;;4955024;28;20203;-73
2022/05/12 00:53:08;;;;;;;5.70;2.80;;;16.90;99.90;;;;;;4952640;28;20670;-73
2022/05/12 00:55:38;;;;;;;5.70;3.20;;;16.80;99.90;;;;;;4954242;28;20682;-73
2022/05/12 00:58:09;;;;;;;4.57;3.07;;;16.80;99.90;;;;;;4954556;28;20221;-73
2022/05/12 01:00:37;;;;;;;3.47;2.60;;;16.80;99.90;;;;;;4953431;28;20198;-72
2022/05/12 01:03:09;;;;;;;5.20;3.27;;;16.70;99.90;;;;;;4941426;28;20214;-72
2022/05/12 01:05:36;;;;;;;4.83;2.90;;;16.80;99.90;;;;;;4959412;28;20233;-71
2022/05/12 01:08:03;;;;;;;4.50;2.90;;;16.90;99.90;;;;;;4952322;28;20214;-73
2022/05/12 01:10:30;;;;;;;3.87;2.60;;;16.80;99.90;;;;;;4951975;28;20210;-74
2022/05/12 01:12:58;;;;;;;5.73;2.90;;;16.80;99.90;;;;;;4955405;28;20201;-73
2022/05/12 01:15:25;;;;;;;4.43;2.63;;;16.70;99.90;;;;;;4952218;28;20202;-73
2022/05/12 01:18:17;;;;;;;3.23;2.67;;;16.70;99.90;;;;;;4953630;28;20237;-75
2022/05/12 01:20:45;;;;;;;3.20;2.60;;;16.70;99.90;;;;;;4945470;28;20194;-72
2022/05/12 01:23:31;;;;;;;5.13;2.60;;;16.70;99.90;;;;;;4948011;28;20222;-73
2022/05/12 01:26:08;;;;;;;4.60;2.43;;;16.90;99.90;;;;;;4954955;28;20673;-72
2022/05/12 01:28:36;;;;;;;3.93;2.20;;;17.00;99.90;;;;;;4946336;28;20218;-74
2022/05/12 01:31:03;;;;;;;3.60;2.23;;;16.90;99.90;;;;;;4954154;28;20202;-73
2022/05/12 01:33:31;;;;;;;5.50;2.30;;;16.90;99.90;;;;;;4953704;28;20273;-72
2022/05/12 01:35:58;;;;;;;2.63;2.20;;;16.90;99.90;;;;;;4955359;28;20672;-73
2022/05/12 01:38:24;;;;;;;3.17;2.63;;;16.80;99.90;;;;;;4946724;28;20219;-73
2022/05/12 01:40:52;;;;;;;3.80;2.50;;;16.80;99.90;;;;;;4951889;28;20335;-72
2022/05/12 01:43:19;;;;;;;4.87;2.33;;;16.90;99.90;;;;;;4944677;28;20223;-72
2022/05/12 01:45:46;;;;;;;3.43;2.53;;;16.80;99.90;;;;;;4950805;28;20670;-73
2022/05/12 01:48:15;;;;;;;4.53;2.43;;;16.70;99.90;;;;;;4948207;28;20273;-73
2022/05/12 01:50:44;;;;;;;2.83;2.30;;;16.70;99.90;;;;;;4951731;28;20206;-71
2022/05/12 01:53:13;;;;;;;4.80;2.57;;;16.70;99.90;;;;;;4945742;28;20557;-73
2022/05/12 01:55:39;;;;;;;3.40;1.93;;;16.70;99.90;;;;;;4950847;28;20208;-72
2022/05/12 01:58:07;;;;;;;2.90;1.93;;;16.70;99.90;;;;;;4947057;28;20241;-74
2022/05/12 02:00:34;;;;;;;2.67;1.77;;;16.80;99.90;;;;;;4948603;28;20567;-73
2022/05/12 02:03:01;;;;;;;2.10;1.83;;;16.80;99.90;;;;;;4952092;28;20232;-72
2022/05/12 02:05:30;;;;;;;3.47;2.20;;;16.90;99.90;;;;;;4953512;28;20253;-72
2022/05/12 02:07:58;;;;;;;3.80;2.53;;;17.10;99.90;;;;;;4947972;28;20225;-73
2022/05/12 02:10:28;;;;;;;2.60;1.97;;;17.10;99.90;;;;;;4949232;28;20635;-72
2022/05/12 02:12:55;;;;;;;2.30;1.70;;;17.10;99.90;;;;;;4954068;28;20678;-72
2022/05/12 02:15:22;;;;;;;2.73;2.10;;;17.30;99.90;;;;;;4953892;28;20262;-72
2022/05/12 02:17:49;;;;;;;6.03;2.17;;;17.40;99.90;;;;;;4952264;28;20230;-74
2022/05/12 02:20:19;;;;;;;4.47;2.20;;;17.40;99.90;;;;;;4954121;28;20285;-73
2022/05/12 02:22:46;;;;;;;2.73;2.20;;;17.30;99.90;;;;;;4946062;28;20234;-72
2022/05/12 02:25:13;;;;;;;6.03;2.23;;;17.30;99.90;;;;;;4952059;28;20654;-73
2022/05/12 02:27:45;;;;;;;5.67;2.70;;;17.40;99.90;;;;;;4953413;28;20210;-73
2022/05/12 02:30:16;;;;;;;4.27;2.00;;;17.40;99.90;;;;;;4948325;28;20580;-72
2022/05/12 02:32:42;;;;;;;3.83;2.20;;;17.40;99.90;;;;;;4951267;28;20210;-73
2022/05/12 02:35:09;;;;;;;4.00;2.43;;;17.30;99.90;;;;;;4945763;28;20202;-72
2022/05/12 02:37:37;;;;;;;2.70;2.27;;;17.20;99.90;;;;;;4950656;28;20226;-73
2022/05/12 02:40:05;;;;;;;4.67;2.30;;;17.10;99.90;;;;;;4946590;28;20594;-72
2022/05/12 02:42:31;;;;;;;4.20;2.23;;;17.10;99.90;;;;;;4952932;28;20221;-73
2022/05/12 02:44:58;;;;;;;2.50;2.00;;;17.00;99.90;;;;;;4952901;28;20197;-72
2022/05/12 02:47:25;;;;;;;3.93;2.30;;;16.90;99.90;;;;;;4953257;28;20214;-74
2022/05/12 02:49:51;;;;;;;3.00;2.33;;;16.90;99.90;;;;;;4946200;28;20284;-73
2022/05/12 02:52:18;;;;;;;3.67;2.40;;;16.70;99.90;;;;;;4953686;28;20201;-72
2022/05/12 02:54:45;;;;;;;2.73;2.10;;;16.60;99.90;;;;;;4953946;28;20201;-72
2022/05/12 02:57:11;;;;;;;3.70;2.00;;;16.50;99.90;;;;;;4950797;28;20253;-74
2022/05/12 02:59:38;;;;;;;3.57;1.90;;;16.50;99.90;;;;;;4950101;28;20194;-73
2022/05/12 03:02:05;;;;;;;3.30;1.97;;;16.40;99.90;;;;;;4953249;28;20199;-72
2022/05/12 03:04:33;;;;;;;5.07;2.03;;;16.40;99.90;;;;;;4951017;28;20584;-73
2022/05/12 03:06:59;;;;;;;3.10;2.57;;;16.40;99.90;;;;;;4952362;28;20205;-72
2022/05/12 03:09:26;;;;;;;3.00;2.20;;;16.50;99.90;;;;;;4953661;28;20205;-74
2022/05/12 03:11:53;;;;;;;2.60;2.07;;;16.60;99.90;;;;;;4954179;28;20206;-72
2022/05/12 03:14:19;;;;;;;3.40;2.10;;;16.70;99.90;;;;;;4948611;28;20621;-72
2022/05/12 03:16:46;;;;;;;7.13;2.37;;;16.80;99.90;;;;;;4951684;28;20462;-72
2022/05/12 03:19:14;;;;;;;2.60;1.90;;;16.70;99.90;;;;;;4953881;28;20214;-72
2022/05/12 03:21:41;;;;;;;3.23;1.90;;;16.70;99.90;;;;;;4948268;28;20255;-74
2022/05/12 03:24:09;;;;;;;4.33;2.00;;;16.70;99.90;;;;;;4952078;28;20642;-73
2022/05/12 03:26:35;;;;;;;3.27;2.03;;;16.60;99.90;;;;;;4951815;28;20242;-74
2022/05/12 03:29:02;;;;;;;5.77;2.17;;;16.60;99.90;;;;;;4953026;28;20726;-72
2022/05/12 03:31:28;;;;;;;2.80;2.10;;;16.50;99.90;;;;;;4945014;28;20473;-72
2022/05/12 03:33:55;;;;;;;3.77;1.87;;;16.50;99.90;;;;;;4950165;28;20628;-73
2022/05/12 03:36:22;;;;;;;8.77;2.43;;;16.40;99.90;;;;;;4950509;28;20292;-72
2022/05/12 03:38:48;;;;;;;3.67;2.10;;;16.30;99.90;;;;;;4944351;28;20222;-72
2022/05/12 03:41:15;;;;;;;5.07;2.20;;;16.30;99.90;;;;;;4952220;28;20281;-72
2022/05/12 03:46:31;;;;;;;3.73;2.47;;;16.10;99.90;;;;;;4944603;28;20195;-73
2022/05/12 03:49:00;;;;;;;2.93;2.27;;;16.00;99.90;;;;;;4951845;28;20217;-73
2022/05/12 03:51:27;;;;;;;4.13;2.20;;;16.00;99.90;;;;;;4950925;28;20199;-74
2022/05/12 03:53:54;;;;;;;3.13;2.00;;;16.20;99.90;;;;;;4952770;28;20202;-72
2022/05/12 03:56:22;;;;;;;3.40;2.37;;;16.30;99.90;;;;;;4950819;28;20633;-73
2022/05/12 03:58:48;;;;;;;3.43;2.37;;;16.30;99.90;;;;;;4956932;28;20719;-73
2022/05/12 04:01:15;;;;;;;4.33;2.37;;;16.40;99.90;;;;;;4954713;28;20194;-73
2022/05/12 04:03:42;;;;;;;3.00;2.10;;;16.50;99.90;;;;;;4956986;28;20214;-72
2022/05/12 04:06:09;;;;;;;4.30;1.90;;;16.60;99.90;;;;;;4950745;28;20206;-73
2022/05/12 04:08:35;;;;;;;3.37;2.30;;;16.70;99.90;;;;;;4956104;28;20229;-72
2022/05/12 04:11:03;;;;;;;3.00;2.20;;;16.90;99.90;;;;;;4955557;28;20198;-73
2022/05/12 04:13:29;;;;;;;5.07;2.50;;;16.90;99.90;;;;;;4954293;28;20198;-72
2022/05/12 04:15:56;;;;;;;4.40;2.10;;;16.90;99.90;;;;;;4956006;28;20207;-74
2022/05/12 04:18:23;;;;;;;2.67;2.23;;;17.00;99.90;;;;;;4956264;28;20724;-73
2022/05/12 04:20:52;;;;;;;2.83;2.00;;;17.00;99.90;;;;;;4955604;28;20205;-72
2022/05/12 04:23:18;;;;;;;3.87;2.23;;;17.10;99.90;;;;;;4951853;28;20637;-73
2022/05/12 04:25:45;;;;;;;3.57;2.40;;;17.30;99.90;;;;;;4956871;28;20678;-72
2022/05/12 04:28:12;;;;;;;2.43;1.80;;;17.40;99.90;;;;;;4953891;28;20214;-72
2022/05/12 04:30:38;;;;;;;8.17;2.70;;;17.50;99.90;;;;;;4954329;28;20202;-74
2022/05/12 04:35:51;;;;;;;3.67;2.00;;;17.70;99.90;;;;;;4955852;28;20205;-72
2022/05/12 04:38:17;;;;;;;4.67;2.33;;;17.70;99.90;;;;;;4954940;28;20230;-71
2022/05/12 04:40:44;;;;;;;7.67;2.50;;;17.80;99.90;;;;;;4955016;28;20589;-72
2022/05/12 04:43:11;;;;;;;7.43;2.60;;;17.70;99.90;;;;;;4956483;28;20225;-73
2022/05/12 04:45:38;;;;;;;3.47;2.07;;;17.60;99.90;;;;;;4956141;28;20204;-72
2022/05/12 04:48:05;;;;;;;3.87;2.30;;;17.60;99.90;;;;;;4956158;28;20317;-71
2022/05/12 04:50:34;;;;;;;4.40;2.30;;;17.80;99.90;;;;;;4955520;28;20594;-71
2022/05/12 04:53:02;;;;;;;3.93;2.33;;;17.80;99.90;;;;;;4954272;28;20206;-73
2022/05/12 04:55:29;;;;;;;5.60;1.67;;;17.80;99.90;;;;;;4953895;28;20611;-73
2022/05/12 04:57:57;;;;;;;4.90;1.80;;;17.90;99.90;;;;;;4956399;28;20225;-72
2022/05/12 05:00:30;;;;;;;5.97;2.17;;;17.90;99.90;;;;;;4953479;28;20198;-73
2022/05/12 05:02:58;;;;;;;3.37;1.73;;;18.00;99.90;;;;;;4954724;28;20210;-71
2022/05/12 05:05:25;;;;;;;5.83;2.00;;;18.10;99.90;;;;;;4955875;28;20206;-72
2022/05/12 05:07:52;;;;;;;2.73;1.73;;;18.10;99.90;;;;;;4952133;28;20222;-72
2022/05/12 05:10:19;;;;;;;2.07;1.57;;;18.20;99.90;;;;;;4953290;28;20201;-72
2022/05/12 05:12:45;;;;;;;2.17;1.43;;;18.20;99.90;;;;;;4951687;28;20206;-71
2022/05/12 05:15:14;;;;;;;3.80;1.40;;;18.40;99.90;;;;;;4951911;28;20201;-72
2022/05/12 05:17:44;;;;;;;3.20;1.40;;;18.30;99.90;;;;;;4953322;28;20214;-73
2022/05/12 05:20:16;;;;;;;3.43;1.40;;;18.40;99.90;;;;;;4946628;28;20202;-72
2022/05/12 05:22:44;;;;;;;3.53;1.57;;;18.40;99.90;;;;;;4948513;28;20618;-71
2022/05/12 05:25:11;;;;;;;2.43;1.30;;;18.50;99.90;;;;;;4955240;28;20202;-73
2022/05/12 05:27:39;;;;;;;2.67;1.40;;;18.60;99.90;;;;;;4953242;28;20222;-75
2022/05/12 05:30:10;;;;;;;3.83;1.53;;;18.80;99.90;;;;;;4949446;28;20265;-73
2022/05/12 05:32:37;;;;;;;3.40;1.20;;;19.00;99.90;;;;;;4955259;28;20265;-73
2022/05/12 05:35:06;;;;;;;4.40;1.40;;;19.40;99.90;;;;;;4954416;28;20194;-73
2022/05/12 05:37:34;;;;;;;2.27;1.10;;;19.40;99.90;;;;;;4953424;28;20340;-73
2022/05/12 05:40:03;;;;;;;5.60;1.60;;;19.40;99.90;;;;;;4944596;28;20202;-73
2022/05/12 05:42:31;;;;;;;3.90;1.63;;;19.60;99.90;;;;;;4949281;28;20206;-73
2022/05/12 05:44:58;;;;;;;3.00;1.20;;;19.80;99.90;;;;;;4954815;28;20260;-74
2022/05/12 05:47:25;;;;;;;3.40;1.50;;;19.60;99.90;;;;;;4952839;28;20225;-72
2022/05/12 05:49:51;;;;;;;1.63;1.30;;;19.50;99.90;;;;;;4953456;28;20214;-73
2022/05/12 05:55:04;;;;;;;4.77;1.50;;;19.20;99.90;;;;;;4952869;28;20210;-72
2022/05/12 05:57:31;;;;;;;2.97;1.47;;;19.00;99.90;;;;;;4954670;28;20297;-73
2022/05/12 05:59:59;;;;;;;1.93;1.17;;;19.00;99.90;;;;;;4954412;28;20198;-73
2022/05/12 06:02:26;;;;;;;2.63;1.27;;;19.00;99.90;;;;;;4949119;28;20201;-73
2022/05/12 06:04:53;;;;;;;3.47;1.50;;;19.20;99.90;;;;;;4953977;28;20305;-73
2022/05/12 06:07:20;;;;;;;2.27;1.43;;;19.30;99.90;;;;;;4949692;28;20218;-72
2022/05/12 06:09:46;;;;;;;3.47;1.60;;;19.40;99.90;;;;;;4943488;28;20250;-75
2022/05/12 06:12:13;;;;;;;3.80;1.57;;;19.20;99.90;;;;;;4949823;28;20207;-74
2022/05/12 06:14:40;;;;;;;3.93;1.13;;;19.10;99.90;;;;;;4947527;28;20210;-74
2022/05/12 06:17:06;;;;;;;3.20;1.43;;;19.00;99.90;;;;;;4947045;28;20210;-75
2022/05/12 06:19:33;;;;;;;4.97;1.40;;;18.90;99.90;;;;;;4947712;28;20292;-74
2022/05/12 06:22:00;;;;;;;9.33;1.77;;;19.00;99.90;;;;;;4946151;28;20579;-76
2022/05/12 06:24:27;;;;;;;3.47;1.50;;;19.00;99.90;;;;;;4946959;28;20297;-75
2022/05/12 06:26:54;;;;;;;12.23;1.97;;;18.90;99.90;;;;;;4945875;28;20209;-74
2022/05/12 06:29:20;;;;;;;3.93;1.40;;;18.80;99.90;;;;;;4946908;28;20214;-74
2022/05/12 06:31:47;;;;;;;6.50;1.47;;;18.80;99.90;;;;;;4948579;28;20585;-74
2022/05/12 06:34:15;;;;;;;2.43;1.30;;;18.80;99.90;;;;;;4946546;28;20198;-74
2022/05/12 06:36:43;;;;;;;9.97;1.60;;;18.90;99.90;;;;;;4948944;28;20199;-76
2022/05/12 06:39:10;;;;;;;3.90;1.53;;;19.00;99.90;;;;;;4945018;28;20441;-75
2022/05/12 06:41:37;;;;;;;4.00;1.23;;;19.10;99.90;;;;;;4948382;28;20558;-74
2022/05/12 06:44:04;;;;;;;3.53;1.20;;;19.20;99.90;;;;;;4942105;28;20238;-73
2022/05/12 06:46:31;;;;;;;3.73;1.40;;;19.10;99.90;;;;;;4944774;28;20198;-73
2022/05/12 06:49:01;;;;;;;4.70;1.60;;;19.20;99.90;;;;;;4943113;28;20372;-75
2022/05/12 06:51:28;;;;;;;2.87;1.40;;;19.20;99.90;;;;;;4944225;28;20199;-75
2022/05/12 06:53:55;;;;;;;1.23;1.00;;;19.40;99.90;;;;;;4944935;28;20210;-73
2022/05/12 06:56:22;;;;;;;2.20;1.30;;;19.60;99.90;;;;;;4947229;28;20206;-73
2022/05/12 06:58:49;;;;;;;6.00;1.63;;;19.60;99.90;;;;;;4945263;28;20226;-75
2022/05/12 07:01:16;;;;;;;2.97;1.80;;;19.80;99.90;;;;;;4945455;28;20215;-77
2022/05/12 07:03:43;;;;;;;4.30;1.50;;;19.90;99.90;;;;;;4945153;28;20704;-73
2022/05/12 07:06:10;;;;;;;2.03;1.20;;;20.10;99.90;;;;;;4944988;28;20673;-73
2022/05/12 07:08:41;;;;;;;4.77;1.47;;;20.20;99.90;;;;;;4946984;28;20221;-73
2022/05/12 07:11:12;;;;;;;2.23;1.40;;;20.30;99.90;;;;;;4943945;28;20198;-73
2022/05/12 07:13:39;;;;;;;2.90;1.50;;;20.40;99.90;;;;;;4941836;28;20217;-76
2022/05/12 07:16:07;;;;;;;3.83;2.00;;;20.80;99.90;;;;;;4942902;28;20265;-76
2022/05/12 07:18:35;;;;;;;6.13;1.60;;;21.20;99.90;;;;;;4944665;28;20324;-74
2022/05/12 07:26:52;;;;;;;5.20;1.40;;;22.90;99.90;;;;;;4944802;28;20696;-74
2022/05/12 07:29:25;;;;;;;4.82;1.48;;;23.00;99.90;;;;;;4945238;28;20281;-74
2022/05/12 07:31:52;;;;;;;3.60;1.33;;;22.00;99.90;;;;;;4943854;28;20327;-74
2022/05/12 07:34:19;;;;;;;2.38;1.40;;;21.80;99.90;;;;;;4942232;28;20740;-76
2022/05/12 07:36:52;;;;;;;2.83;1.30;;;21.60;99.90;;;;;;4943458;28;20702;-74
2022/05/12 07:39:25;;;;;;;2.45;1.23;;;21.50;99.90;;;;;;4945601;28;20226;-74
2022/05/12 07:41:52;;;;;;;2.00;1.40;;;21.80;99.90;;;;;;4944308;28;20259;-73
2022/05/12 07:44:19;;;;;;;3.72;1.40;;;22.20;99.90;;;;;;4943674;28;20217;-75
2022/05/12 07:46:47;;;;;;;3.65;1.25;;;22.40;99.90;;;;;;4941340;28;20206;-77
2022/05/12 07:49:14;;;;;;;2.65;1.35;;;22.50;99.90;;;;;;4942741;28;20229;-74
2022/05/12 07:51:47;;;;;;;3.90;1.42;;;22.40;99.90;;;;;;4943960;28;20198;-76
2022/05/12 07:54:13;;;;;;;2.58;1.20;;;22.60;99.90;;;;;;4943096;28;20210;-75
2022/05/12 07:56:40;;;;;;;2.60;1.70;;;22.70;99.90;;;;;;4939490;28;21641;-74
2022/05/12 07:59:06;;;;;;;2.50;1.40;;;22.60;99.90;;;;;;4944685;28;20244;-74
2022/05/12 08:01:33;;;;;;;5.40;2.20;;;23.00;99.90;;;;;;4943781;28;20202;-75
2022/05/12 08:04:00;;;;;;;6.63;1.40;;;23.10;99.90;;;;;;4944218;28;20257;-77
2022/05/12 08:06:27;;;;;;;2.05;1.20;;;23.40;99.90;;;;;;4945869;28;20199;-74
2022/05/12 08:08:54;;;;;;;2.58;1.35;;;22.80;99.90;;;;;;4942447;28;20214;-75
2022/05/12 08:11:20;;;;;;;3.20;1.67;;;22.10;99.90;;;;;;4942292;28;20217;-76
2022/05/12 08:13:48;;;;;;;5.00;1.30;;;21.70;99.90;;;;;;4940097;28;20236;-74
2022/05/12 08:16:20;;;;;;;1.70;1.40;;;21.90;99.90;;;;;;4942562;28;20206;-76
2022/05/12 08:18:49;;;;;;;5.22;1.50;;;22.20;99.90;;;;;;4939567;28;20233;-76
2022/05/12 08:21:19;;;;;;;3.80;1.33;;;22.20;99.90;;;;;;4943213;28;20202;-78
2022/05/12 08:23:47;;;;;;;1.80;1.30;;;22.60;99.90;;;;;;4941477;28;20225;-75
2022/05/12 08:26:14;;;;;;;2.30;1.33;;;22.90;99.90;;;;;;4941829;28;20251;-78
2022/05/12 08:28:40;;;;;;;4.05;1.40;;;22.90;99.90;;;;;;4940849;28;20226;-76
2022/05/12 08:31:07;;;;;;;3.45;1.50;;;22.80;99.90;;;;;;4945364;28;20206;-76
2022/05/12 08:33:37;;;;;;;2.15;1.20;;;22.90;99.90;;;;;;4944069;28;20237;-77
2022/05/12 08:36:04;;;;;;;2.97;1.85;;;22.80;99.90;;;;;;4943036;28;20213;-77
2022/05/12 08:38:31;;;;;;;2.33;1.25;;;22.50;99.90;;;;;;4944909;28;20237;-80
2022/05/12 08:41:04;;;;;;;2.13;1.38;;;22.50;99.90;;;;;;4943114;28;20210;-78
2022/05/12 08:43:57;;;;;;;2.00;1.20;;;22.50;99.90;;;;;;4947244;28;20198;-76
2022/05/12 08:46:49;;;;;;;2.35;1.45;;;22.50;99.90;;;;;;4946017;28;20239;-76
2022/05/12 08:49:30;;;;;;;2.72;1.30;;;22.70;99.90;;;;;;4946713;28;20613;-78
2022/05/12 08:52:15;;;;;;;2.90;1.20;;;22.70;99.90;;;;;;4946844;28;20206;-76
2022/05/12 08:54:56;;;;;;;4.10;1.25;;;22.90;99.90;;;;;;4948020;28;20194;-75
2022/05/12 08:57:39;;;;;;;3.38;1.25;;;22.90;99.90;;;;;;4950298;28;20248;-78
2022/05/12 09:00:10;;;;;;;1.20;1.00;;;22.70;99.90;;;;;;4948590;28;20210;-75
2022/05/12 09:03:03;;;;;;;4.63;1.10;;;22.50;99.90;;;;;;4948451;28;20206;-76
2022/05/12 09:05:42;;;;;;;2.45;1.30;;;22.60;99.90;;;;;;4946777;28;20233;-75
2022/05/12 09:08:33;;;;;;;2.85;1.30;;;22.50;99.90;;;;;;4949158;28;20224;-78
2022/05/12 09:11:09;;;;;;;4.55;1.35;;;22.80;99.90;;;;;;4948566;28;20197;-79
2022/05/12 09:13:52;;;;;;;6.25;1.30;;;23.40;99.90;;;;;;4949676;28;20202;-75
2022/05/12 09:16:32;;;;;;;2.08;1.17;;;23.40;99.90;;;;;;4949525;28;20198;-79
2022/05/12 09:19:00;;;;;;;3.85;1.40;;;23.20;99.90;;;;;;4949080;28;20615;-74
2022/05/12 09:21:35;;;;;;;3.33;1.10;;;23.00;99.90;;;;;;4949857;28;20202;-75
2022/05/12 09:24:04;;;;;;;2.40;1.13;;;23.40;99.90;;;;;;4946410;28;20224;-77
2022/05/12 09:26:31;;;;;;;1.58;1.15;;;24.10;99.90;;;;;;4948387;28;20202;-74
2022/05/12 09:29:23;;;;;;;2.83;1.10;;;24.60;99.90;;;;;;4945662;28;20596;-73
2022/05/12 09:31:53;;;;;;;1.70;1.10;;;24.50;99.90;;;;;;4944323;28;20218;-74
2022/05/12 09:34:27;;;;;;;1.90;1.00;;;24.80;99.90;;;;;;4948541;28;20265;-74
2022/05/12 09:36:53;;;;;;;2.83;1.05;;;25.40;99.90;;;;;;4947738;28;20201;-75
2022/05/12 09:39:39;;;;;;;3.90;1.23;;;26.00;99.90;;;;;;4946796;28;20667;-77
2022/05/12 09:42:08;;;;;;;2.08;0.82;;;26.10;99.90;;;;;;4947519;28;20213;-74
2022/05/12 09:44:35;;;;;;;1.63;1.20;;;26.30;99.90;;;;;;4947134;28;20827;-78
2022/05/12 09:47:11;;;;;;;2.28;1.00;;;26.20;99.90;;;;;;4944311;28;20204;-81
2022/05/12 09:49:40;;;;;;;3.85;1.30;;;26.40;99.90;;;;;;4944116;28;20212;-76
2022/05/12 09:52:35;;;;;;;1.15;1.05;;;26.40;99.90;;;;;;4947877;28;20214;-77
2022/05/12 09:55:11;;;;;;;2.22;1.10;;;25.90;99.90;;;;;;4945643;28;20238;-72
2022/05/12 09:57:50;;;;;;;1.45;1.00;;;26.20;99.90;;;;;;4947538;28;20352;-74
2022/05/12 10:00:40;;;;;;;2.63;1.10;;;26.20;99.90;;;;;;4950360;28;20190;-77
2022/05/12 10:09:20;;;;;;;1.00;0.90;;;25.50;99.90;;;;;;4947648;28;20214;-76
2022/05/12 10:11:47;;;;;;;2.10;1.02;;;25.50;99.90;;;;;;4945226;28;20674;-75
2022/05/12 10:14:40;;;;;;;2.08;1.20;;;25.30;99.90;;;;;;4937355;28;20285;-75
2022/05/12 10:17:27;;;;;;;2.65;1.00;;;25.80;99.90;;;;;;4923004;28;20202;-75
2022/05/12 10:19:56;;;;;;;1.35;0.90;;;26.10;99.90;;;;;;4946772;28;20210;-75
2022/05/12 10:23:04;;;;;;;5.05;1.23;;;26.10;99.90;;;;;;4947048;28;20253;-75
2022/05/12 10:25:58;;;;;;;2.45;1.10;;;26.30;99.90;;;;;;4942989;28;20281;-74
2022/05/12 10:28:50;;;;;;;1.42;1.20;;;25.80;99.90;;;;;;4944635;28;20229;-75
2022/05/12 10:31:28;;;;;;;3.72;1.08;;;25.50;99.90;;;;;;4943752;28;20198;-75
2022/05/12 10:34:07;;;;;;;3.63;1.10;;;25.50;99.90;;;;;;4942842;28;20297;-78
2022/05/12 10:36:39;;;;;;;2.33;1.20;;;25.60;99.90;;;;;;4943903;28;20198;-77
2022/05/12 10:39:24;;;;;;;1.67;1.00;;;25.40;99.90;;;;;;4944157;28;20260;-78
2022/05/12 10:42:11;;;;;;;2.03;1.08;;;25.50;99.90;;;;;;4947903;28;20202;-78
2022/05/12 10:45:01;;;;;;;2.85;1.40;;;25.80;99.90;;;;;;4959570;28;20254;-78
2022/05/12 10:47:43;;;;;;;3.40;1.58;;;26.30;99.90;;;;;;4957113;28;20218;-80
2022/05/12 10:50:25;;;;;;;2.35;0.90;;;26.20;99.90;;;;;;4954810;28;20213;-77
2022/05/12 10:52:58;;;;;;;1.77;0.90;;;25.80;99.90;;;;;;4947036;28;20324;-77
2022/05/12 10:55:37;;;;;;;1.90;0.90;;;25.60;99.90;;;;;;4948403;28;20202;-77
2022/05/12 10:58:31;;;;;;;2.78;1.30;;;25.70;99.90;;;;;;4947101;28;20722;-76
2022/05/12 11:01:16;;;;;;;1.50;0.98;;;25.70;99.90;;;;;;4945876;28;20201;-79
2022/05/12 11:04:12;;;;;;;2.53;0.90;;;25.50;99.90;;;;;;4947386;28;20206;-78
2022/05/12 11:06:46;;;;;;;4.13;1.10;;;25.20;99.90;;;;;;4943359;28;20206;-79
2022/05/12 11:09:19;;;;;;;1.88;1.10;;;25.10;99.90;;;;;;4946182;28;20222;-80
2022/05/12 11:11:50;;;;;;;3.95;1.10;;;25.40;99.90;;;;;;4947008;28;20256;-81
2022/05/12 11:14:22;;;;;;;3.63;1.52;;;25.80;99.90;;;;;;4946806;28;20224;-82
2022/05/12 11:17:10;;;;;;;2.65;1.08;;;25.90;99.90;;;;;;4945788;28;20213;-79
2022/05/12 11:19:43;;;;;;;1.38;1.00;;;26.10;99.90;;;;;;4945097;28;20202;-80
2022/05/12 11:22:40;;;;;;;6.72;1.65;;;26.50;99.90;;;;;;4943368;28;20209;-77
2022/05/12 11:25:19;;;;;;;3.15;1.10;;;26.70;99.90;;;;;;4945116;28;20222;-77
2022/05/12 11:29:41;;;;;;;2.67;1.58;;;26.50;99.90;;;;;;4947183;28;20218;-78
2022/05/12 11:30:51;;;;;;;6.43;1.17;;;25.80;99.90;;;;;;4945177;28;20278;-78
2022/05/12 11:33:35;;;;;;;3.55;1.00;;;25.40;99.90;;;;;;4944489;28;20796;-78
2022/05/12 11:36:02;;;;;;;4.65;1.17;;;25.20;99.90;;;;;;4945956;28;20596;-74
2022/05/12 11:38:39;;;;;;;3.67;1.38;;;25.30;99.90;;;;;;4945214;28;20233;-75
2022/05/12 11:41:08;;;;;;;1.55;0.85;;;25.10;99.90;;;;;;4944994;28;20202;-77
2022/05/12 11:46:56;;;;;;;3.33;0.95;;;25.30;99.90;;;;;;4946165;28;20222;-76
2022/05/12 11:49:31;;;;;;;2.35;0.90;;;25.70;99.90;;;;;;4943829;28;21373;-76
2022/05/12 11:52:22;;;;;;;1.67;0.80;;;25.40;99.90;;;;;;4945674;28;20190;-79
2022/05/12 11:54:57;;;;;;;2.75;1.00;;;25.10;99.90;;;;;;4946238;28;20214;-76
2022/05/12 11:57:28;;;;;;;1.85;0.80;;;25.20;99.90;;;;;;4946389;28;20232;-76
2022/05/12 12:00:01;;;;;;;2.88;1.08;;;25.50;99.90;;;;;;4946051;28;20217;-78
2022/05/12 12:02:33;;;;;;;3.70;1.20;;;25.70;99.90;;;;;;4942044;28;20585;-77
2022/05/12 12:05:03;;;;;;;3.65;1.00;;;25.80;99.90;;;;;;4946207;28;20233;-75
2022/05/12 12:07:34;;;;;;;4.40;2.13;;;25.80;99.30;;;;;;4945133;28;20229;-75
2022/05/12 12:10:22;;;;;;;3.70;0.80;;;25.40;99.40;;;;;;4945038;28;20232;-76
2022/05/12 12:13:15;;;;;;;2.28;0.80;;;25.50;99.90;;;;;;4945961;28;20232;-75
2022/05/12 12:15:59;;;;;;;3.58;0.80;;;25.40;99.20;;;;;;4945749;28;20220;-76
2022/05/12 12:18:44;;;;;;;8.80;0.98;;;25.70;99.90;;;;;;4948783;28;20229;-80
2022/05/12 12:21:26;;;;;;;3.40;0.90;;;25.80;99.60;;;;;;4947379;28;20441;-76
2022/05/12 12:24:11;;;;;;;15.95;1.73;;;26.10;99.70;;;;;;4949637;28;20210;-75
2022/05/12 12:26:40;;;;;;;4.97;1.20;;;26.10;98.80;;;;;;4949413;28;20229;-78
2022/05/12 12:29:09;;;;;;;6.03;1.10;;;25.20;99.80;;;;;;4948795;28;20221;-77
2022/05/12 12:31:44;;;;;;;1.65;0.77;;;25.20;99.90;;;;;;4948754;28;20210;-78
2022/05/12 12:34:12;;;;;;;2.47;1.00;;;25.30;99.90;;;;;;4948603;28;20201;-77
2022/05/12 12:36:49;;;;;;;2.33;1.05;;;25.50;99.90;;;;;;4948766;28;20289;-77
2022/05/12 12:39:43;;;;;;;5.65;0.90;;;25.60;99.40;;;;;;4949922;28;20305;-79
2022/05/12 12:42:15;;;;;;;1.33;0.90;;;25.40;99.70;;;;;;4950289;28;20647;-78
2022/05/12 12:44:50;;;;;;;1.85;0.95;;;25.40;99.50;;;;;;4945591;28;20208;-79
2022/05/12 12:47:26;;;;;;;5.32;1.15;;;25.60;99.90;;;;;;4945273;28;21104;-79
2022/05/12 12:49:56;;;;;;;3.28;0.90;;;25.80;99.40;;;;;;4947014;28;20213;-78
2022/05/12 12:52:22;;;;;;;2.50;0.80;;;25.80;99.40;;;;;;4944800;28;20958;-83
2022/05/12 12:57:52;;;;;;;2.15;0.90;;;26.00;99.30;;;;;;4947512;28;20249;-80
2022/05/12 13:00:29;;;;;;;3.45;0.85;;;25.70;98.30;;;;;;4948206;28;20194;-76
2022/05/12 13:03:08;;;;;;;3.33;0.90;;;25.30;99.10;;;;;;4945729;28;20637;-77
2022/05/12 13:05:36;;;;;;;3.15;0.88;;;25.30;98.80;;;;;;4948226;28;20571;-79
2022/05/12 13:08:08;;;;;;;4.60;1.08;;;25.40;99.90;;;;;;4950087;28;20303;-76
2022/05/12 13:10:45;;;;;;;1.15;0.88;;;25.50;98.90;;;;;;4947342;28;20566;-76
2022/05/12 13:13:12;;;;;;;2.17;1.00;;;25.80;98.80;;;;;;4947610;28;20202;-75
2022/05/12 13:15:43;;;;;;;2.88;1.00;;;25.90;99.00;;;;;;4949673;28;20233;-77
2022/05/12 13:18:23;;;;;;;3.45;1.08;;;25.70;98.70;;;;;;4946498;28;20296;-76
2022/05/12 13:20:58;;;;;;;1.98;0.77;;;25.50;98.40;;;;;;4948691;28;20639;-77
2022/05/12 13:23:28;;;;;;;1.80;0.95;;;25.10;98.20;;;;;;4948272;28;20207;-78
2022/05/12 13:25:56;;;;;;;1.50;0.95;;;25.00;98.80;;;;;;4947258;28;20229;-75
2022/05/12 13:28:27;;;;;;;1.25;0.90;;;25.10;99.30;;;;;;4943864;28;20218;-82
2022/05/12 13:31:11;;;;;;;2.05;0.90;;;25.50;98.30;;;;;;4946121;28;20642;-79
2022/05/12 13:33:52;;;;;;;4.13;0.90;;;25.70;98.70;;;;;;4947830;28;20221;-77
2022/05/12 13:36:23;;;;;;;3.33;0.95;;;25.70;98.20;;;;;;4946565;28;20229;-76